Time;durP1;ratioP1;P1;durP2;ratioP2;P2;SDS_P1;SDS_P2;PMS_P1;PMS_P2;Temp;Humidity;BMP_temperature;BMP_pressure;BME280_temperature;BME280_humidity;BME280_pressure;Samples;Min_cycle;Max_cycle;Signal;HPM_P1;HPM_P2
2023/08/14 00:00:48;;;;;;;1.23;0.70;;;;;;;28.40;44.74;101528.38;4896195;28;100637;-81
2023/08/14 00:03:15;;;;;;;1.15;0.60;;;;;;;28.41;44.69;101532.00;4914989;28;96723;-80
2023/08/14 00:05:41;;;;;;;1.10;0.70;;;;;;;28.42;44.79;101537.31;4910219;28;96504;-80
2023/08/14 00:08:08;;;;;;;0.90;0.70;;;;;;;28.41;44.96;101532.84;4906486;28;97120;-80
2023/08/14 00:10:36;;;;;;;1.05;0.57;;;;;;;28.42;44.65;101533.72;4916138;28;97337;-80
2023/08/14 00:13:02;;;;;;;1.15;0.70;;;;;;;28.41;44.63;101534.78;4916138;28;97006;-80
2023/08/14 00:15:29;;;;;;;0.70;0.60;;;;;;;28.41;44.70;101532.84;4905839;28;97050;-80
2023/08/14 00:17:56;;;;;;;1.50;0.60;;;;;;;28.41;44.82;101529.25;4912062;28;96826;-80
2023/08/14 00:20:22;;;;;;;0.65;0.57;;;;;;;28.41;44.75;101538.38;4909520;28;99463;-81
2023/08/14 00:22:49;;;;;;;0.55;0.40;;;;;;;28.40;44.78;101536.69;4896598;28;96680;-80
2023/08/14 00:25:15;;;;;;;0.98;0.70;;;;;;;28.41;44.79;101534.78;4909174;28;96718;-81
2023/08/14 00:27:42;;;;;;;0.85;0.80;;;;;;;28.41;44.79;101534.78;4913972;28;99428;-80
2023/08/14 00:30:09;;;;;;;1.00;0.52;;;;;;;28.41;44.92;101529.25;4916929;28;96809;-80
2023/08/14 00:32:35;;;;;;;1.33;0.60;;;;;;;28.41;44.86;101518.19;4914743;28;96816;-80
2023/08/14 00:35:02;;;;;;;0.70;0.50;;;;;;;28.40;44.74;101525.63;4917669;28;96957;-80
2023/08/14 00:37:40;;;;;;;1.55;0.77;;;;;;;28.40;44.53;101520.09;4917209;28;96878;-80
2023/08/14 00:40:10;;;;;;;0.90;0.60;;;;;;;28.38;44.67;101516.69;4910433;28;96775;-80
2023/08/14 00:42:42;;;;;;;1.00;0.60;;;;;;;28.37;44.55;101517.75;4917953;28;96897;-80
2023/08/14 00:45:10;;;;;;;0.85;0.70;;;;;;;28.38;44.66;101511.16;4908347;28;96842;-80
2023/08/14 00:47:37;;;;;;;0.55;0.55;;;;;;;28.38;44.85;101519.47;4902068;28;99352;-80
2023/08/14 00:50:05;;;;;;;0.63;0.55;;;;;;;28.38;44.66;101507.56;4918780;28;99492;-80
2023/08/14 00:52:40;;;;;;;1.42;0.68;;;;;;;28.38;44.59;101510.31;4915660;28;97043;-80
2023/08/14 00:55:11;;;;;;;0.60;0.60;;;;;;;28.38;44.65;101510.31;4909482;28;96877;-80
2023/08/14 00:57:38;;;;;;;1.33;0.60;;;;;;;28.38;44.52;101510.31;4910052;28;97168;-80
2023/08/14 01:00:06;;;;;;;0.70;0.50;;;;;;;28.37;44.64;101520.53;4918483;28;98867;-80
2023/08/14 01:02:34;;;;;;;0.90;0.60;;;;;;;28.38;44.71;101519.47;4915614;28;96871;-80
2023/08/14 01:05:01;;;;;;;1.08;0.60;;;;;;;28.37;44.90;101515.00;4920552;28;97643;-80
2023/08/14 01:07:29;;;;;;;0.60;0.50;;;;;;;28.36;44.56;101507.78;4918792;28;99032;-80
2023/08/14 01:09:56;;;;;;;1.10;0.60;;;;;;;28.37;44.58;101512.25;4917050;28;96779;-80
2023/08/14 01:12:37;;;;;;;0.55;0.43;;;;;;;28.37;44.68;101509.47;4917781;28;97328;-80
2023/08/14 01:15:11;;;;;;;0.90;0.65;;;;;;;28.36;44.90;101504.16;4914165;28;96940;-80
2023/08/14 01:17:42;;;;;;;0.90;0.73;;;;;;;28.37;44.67;101508.63;4915148;28;98408;-80
2023/08/14 01:20:12;;;;;;;0.77;0.52;;;;;;;28.36;44.74;101495.88;4919220;28;99531;-80
2023/08/14 01:22:53;;;;;;;0.70;0.50;;;;;;;28.35;44.72;101500.53;4919719;28;96786;-80
2023/08/14 01:25:31;;;;;;;0.70;0.50;;;;;;;28.35;44.68;101505.22;4919357;28;97244;-80
2023/08/14 01:27:59;;;;;;;0.70;0.55;;;;;;;28.35;44.77;101500.53;4919098;28;96931;-80
2023/08/14 01:30:26;;;;;;;1.00;0.60;;;;;;;28.36;44.55;101498.63;4917543;28;100357;-80
2023/08/14 01:32:54;;;;;;;1.00;0.60;;;;;;;28.35;44.42;101489.50;4914461;28;96866;-80
2023/08/14 01:35:24;;;;;;;0.60;0.40;;;;;;;28.34;44.74;101490.56;4918327;28;96938;-80
2023/08/14 01:38:21;;;;;;;1.10;0.70;;;;;;;28.35;44.69;101492.25;4915052;28;96816;-80
2023/08/14 01:40:48;;;;;;;0.70;0.60;;;;;;;28.34;44.77;101490.56;4900443;28;97587;-81
2023/08/14 01:43:21;;;;;;;0.70;0.50;;;;;;;28.34;44.71;101492.47;4919469;28;97370;-80
2023/08/14 01:45:48;;;;;;;0.80;0.50;;;;;;;28.34;45.01;101492.47;4918862;28;97104;-80
2023/08/14 01:48:15;;;;;;;0.75;0.60;;;;;;;28.34;44.50;101489.72;4919075;28;96908;-80
2023/08/14 01:50:43;;;;;;;0.73;0.70;;;;;;;28.34;44.50;101485.03;4919003;28;97975;-81
2023/08/14 01:53:10;;;;;;;0.77;0.60;;;;;;;28.34;44.71;101479.50;4916737;28;97594;-80
2023/08/14 01:55:36;;;;;;;0.68;0.50;;;;;;;28.34;44.62;101481.41;4918855;28;96851;-80
2023/08/14 01:58:03;;;;;;;0.65;0.50;;;;;;;28.34;44.83;101481.41;4902745;28;101104;-80
2023/08/14 02:00:32;;;;;;;0.80;0.50;;;;;;;28.34;44.74;101475.88;4903100;28;99129;-80
2023/08/14 02:03:00;;;;;;;0.70;0.47;;;;;;;28.33;44.73;101460.38;4915331;28;97427;-80
2023/08/14 02:05:27;;;;;;;0.70;0.60;;;;;;;28.34;44.63;101462.06;4901729;28;96897;-80
2023/08/14 02:07:54;;;;;;;0.60;0.60;;;;;;;28.34;44.51;101456.56;4915756;28;99748;-80
2023/08/14 02:10:21;;;;;;;0.80;0.60;;;;;;;28.34;44.81;101457.41;4919768;28;96758;-80
2023/08/14 02:12:47;;;;;;;0.73;0.60;;;;;;;28.34;44.43;101451.88;4920593;28;96841;-80
2023/08/14 02:15:14;;;;;;;1.15;0.65;;;;;;;28.33;44.60;101452.94;4918460;28;96824;-80
2023/08/14 02:17:40;;;;;;;1.60;0.90;;;;;;;28.34;44.62;101442.75;4913299;28;99340;-80
2023/08/14 02:20:08;;;;;;;1.08;0.50;;;;;;;28.33;44.48;101461.22;4917456;28;96782;-81
2023/08/14 02:22:34;;;;;;;0.75;0.68;;;;;;;28.34;44.83;101451.88;4898001;28;96641;-80
2023/08/14 02:25:01;;;;;;;0.93;0.50;;;;;;;28.34;44.54;101454.63;4918334;28;96884;-80
2023/08/14 02:27:28;;;;;;;0.70;0.52;;;;;;;28.33;44.69;101452.94;4919479;28;97418;-80
2023/08/14 02:29:57;;;;;;;0.70;0.60;;;;;;;28.34;44.32;101456.56;4920526;28;97127;-80
2023/08/14 02:32:24;;;;;;;1.88;0.70;;;;;;;28.32;44.64;101448.47;4919890;28;96924;-80
2023/08/14 02:34:53;;;;;;;0.82;0.52;;;;;;;28.32;44.56;101451.25;4918576;28;97002;-80
2023/08/14 02:37:19;;;;;;;0.50;0.45;;;;;;;28.32;44.62;101444.88;4900568;28;99733;-80
2023/08/14 02:39:46;;;;;;;1.38;0.60;;;;;;;28.33;44.73;101441.88;4916803;28;99694;-80
2023/08/14 02:42:15;;;;;;;0.60;0.50;;;;;;;28.33;44.64;101441.03;4918734;28;96691;-80
2023/08/14 02:44:42;;;;;;;1.30;0.70;;;;;;;28.32;44.57;101436.56;4912841;28;96696;-80
2023/08/14 02:47:09;;;;;;;1.20;0.55;;;;;;;28.32;44.38;101433.81;4910934;28;99341;-80
2023/08/14 02:49:36;;;;;;;0.73;0.60;;;;;;;28.31;44.73;101441.25;4901176;28;99753;-80
2023/08/14 02:52:03;;;;;;;1.08;0.70;;;;;;;28.31;44.59;101438.50;4918815;28;97096;-80
2023/08/14 02:54:30;;;;;;;0.93;0.60;;;;;;;28.31;44.51;101435.72;4909617;28;96865;-80
2023/08/14 02:56:56;;;;;;;0.63;0.40;;;;;;;28.31;44.44;101444.00;4915820;28;97040;-80
2023/08/14 02:59:23;;;;;;;1.23;0.63;;;;;;;28.31;44.53;101449.53;4906402;28;97460;-80
2023/08/14 03:01:49;;;;;;;0.55;0.45;;;;;;;28.31;44.58;101451.44;4915517;28;96679;-80
2023/08/14 03:04:17;;;;;;;0.70;0.63;;;;;;;28.30;44.56;101447.84;4911942;28;96886;-80
2023/08/14 03:06:44;;;;;;;0.82;0.55;;;;;;;28.31;44.75;101449.53;4895496;28;100563;-80
2023/08/14 03:09:11;;;;;;;0.77;0.60;;;;;;;28.30;44.50;101453.38;4917868;28;99338;-81
2023/08/14 03:11:38;;;;;;;0.70;0.60;;;;;;;28.30;44.45;101456.13;4920040;28;96458;-80
2023/08/14 03:14:04;;;;;;;1.02;0.60;;;;;;;28.30;44.85;101447.00;4920435;28;97089;-81
2023/08/14 03:16:31;;;;;;;0.45;0.40;;;;;;;28.31;44.30;101454.22;4918724;28;96827;-80
2023/08/14 03:18:58;;;;;;;0.70;0.50;;;;;;;28.30;44.53;101455.28;4917034;28;98654;-80
2023/08/14 03:21:24;;;;;;;1.85;0.68;;;;;;;28.29;44.74;101456.34;4917916;28;97004;-80
2023/08/14 03:23:51;;;;;;;1.02;0.70;;;;;;;28.30;44.45;101456.13;4918213;28;96794;-81
2023/08/14 03:26:17;;;;;;;0.50;0.43;;;;;;;28.29;44.54;101440.59;4919405;28;99897;-80
2023/08/14 03:28:44;;;;;;;0.77;0.60;;;;;;;28.30;44.80;101449.75;4904571;28;96709;-80
2023/08/14 03:31:11;;;;;;;0.77;0.40;;;;;;;28.29;44.36;101448.03;4915893;28;96733;-80
2023/08/14 03:33:37;;;;;;;0.70;0.60;;;;;;;28.29;44.42;101435.09;4903244;28;96668;-80
2023/08/14 03:36:06;;;;;;;0.68;0.43;;;;;;;28.28;44.62;101435.28;4902045;28;99791;-80
2023/08/14 03:38:33;;;;;;;0.65;0.43;;;;;;;28.27;44.58;101428.06;4917632;28;98183;-81
2023/08/14 03:41:01;;;;;;;2.33;0.60;;;;;;;28.27;44.52;101428.91;4920305;28;96730;-80
2023/08/14 03:43:27;;;;;;;0.70;0.55;;;;;;;28.27;44.43;101425.31;4904104;28;96871;-80
2023/08/14 03:45:54;;;;;;;0.70;0.52;;;;;;;28.26;44.50;101424.47;4916815;28;96918;-80
2023/08/14 03:48:21;;;;;;;0.77;0.60;;;;;;;28.27;44.55;101422.56;4904026;28;97806;-80
2023/08/14 03:50:47;;;;;;;1.05;0.50;;;;;;;28.26;44.42;101423.59;4912908;28;97269;-80
2023/08/14 03:53:14;;;;;;;0.82;0.50;;;;;;;28.26;44.36;101427.22;4902411;28;96740;-80
2023/08/14 03:55:41;;;;;;;0.80;0.38;;;;;;;28.25;44.48;101428.28;4909572;28;100813;-80
2023/08/14 03:58:07;;;;;;;0.40;0.40;;;;;;;28.26;44.35;101432.75;4921068;28;96810;-80
2023/08/14 04:00:34;;;;;;;1.75;0.50;;;;;;;28.26;44.18;101423.59;4919703;28;98060;-81
2023/08/14 04:03:01;;;;;;;0.93;0.65;;;;;;;28.25;44.42;101420.00;4919577;28;97356;-80
2023/08/14 04:05:28;;;;;;;1.00;0.60;;;;;;;28.26;44.44;101431.91;4921000;28;96738;-80
2023/08/14 04:07:55;;;;;;;0.77;0.50;;;;;;;28.26;44.46;101431.91;4917706;28;97172;-80
2023/08/14 04:10:23;;;;;;;0.52;0.50;;;;;;;28.24;44.24;101434.88;4922978;28;96793;-80
2023/08/14 04:12:50;;;;;;;0.90;0.50;;;;;;;28.25;44.29;101430.19;4924733;28;96786;-80
2023/08/14 04:15:18;;;;;;;0.50;0.50;;;;;;;28.25;44.43;101425.53;4917928;28;97309;-80
2023/08/14 04:17:44;;;;;;;0.50;0.40;;;;;;;28.25;44.24;101430.19;4902863;28;96722;-81
2023/08/14 04:20:12;;;;;;;1.05;0.70;;;;;;;28.25;44.44;101432.97;4921228;28;97530;-80
2023/08/14 04:22:39;;;;;;;0.98;0.60;;;;;;;28.24;44.55;101423.81;4904848;28;97291;-80
2023/08/14 04:25:05;;;;;;;0.75;0.50;;;;;;;28.25;44.61;101424.66;4922012;28;96812;-79
2023/08/14 04:27:34;;;;;;;0.60;0.50;;;;;;;28.24;44.41;101423.81;4922879;28;99180;-80
2023/08/14 04:30:02;;;;;;;1.20;0.52;;;;;;;28.23;44.54;101416.56;4922558;28;96675;-80
2023/08/14 04:32:29;;;;;;;0.93;0.60;;;;;;;28.24;44.27;101420.19;4917181;28;96748;-80
2023/08/14 04:34:56;;;;;;;0.70;0.50;;;;;;;28.24;44.30;101409.13;4921827;28;96923;-80
2023/08/14 04:37:23;;;;;;;0.80;0.60;;;;;;;28.23;44.48;101411.03;4921485;28;97195;-81
2023/08/14 04:39:50;;;;;;;0.80;0.60;;;;;;;28.23;44.31;101411.03;4915145;28;96954;-80
2023/08/14 04:42:16;;;;;;;0.60;0.50;;;;;;;28.23;44.28;101416.56;4922995;28;96705;-80
2023/08/14 04:44:45;;;;;;;0.98;0.50;;;;;;;28.24;44.27;101400.84;4931735;28;98936;-81
2023/08/14 04:47:12;;;;;;;0.50;0.50;;;;;;;28.23;44.33;101393.59;4914216;28;99678;-80
2023/08/14 04:49:39;;;;;;;0.88;0.50;;;;;;;28.22;44.13;101398.25;4903737;28;96859;-80
2023/08/14 04:52:05;;;;;;;0.50;0.50;;;;;;;28.22;44.17;101398.25;4921122;28;96802;-80
2023/08/14 04:54:34;;;;;;;1.75;0.63;;;;;;;28.23;44.33;101390.81;4902672;28;100427;-80
2023/08/14 04:57:01;;;;;;;0.93;0.60;;;;;;;28.23;44.14;101393.59;4923598;28;97148;-80
2023/08/14 04:59:28;;;;;;;0.60;0.50;;;;;;;28.22;44.39;101389.97;4923301;28;96765;-80
2023/08/14 05:01:54;;;;;;;0.75;0.60;;;;;;;28.23;44.38;101394.47;4923425;28;97378;-80
2023/08/14 05:04:23;;;;;;;0.65;0.40;;;;;;;28.22;44.31;101387.22;4904863;28;98564;-80
2023/08/14 05:06:51;;;;;;;0.73;0.50;;;;;;;28.22;44.36;101392.72;4922882;28;97508;-80
2023/08/14 05:09:18;;;;;;;0.95;0.50;;;;;;;28.22;44.48;101383.59;4919381;28;96826;-80
2023/08/14 05:11:54;;;;;;;0.60;0.47;;;;;;;28.22;44.43;101381.69;4900687;28;96757;-80
2023/08/14 05:14:21;;;;;;;0.50;0.50;;;;;;;28.22;44.26;101384.44;4923078;28;99250;-80
2023/08/14 05:16:47;;;;;;;0.47;0.40;;;;;;;28.22;44.55;101386.38;4925912;28;96668;-80
2023/08/14 05:19:14;;;;;;;0.82;0.63;;;;;;;28.22;44.43;101387.22;4933252;28;96839;-80
2023/08/14 05:21:41;;;;;;;0.93;0.50;;;;;;;28.23;44.43;101385.28;4933422;28;96721;-80
2023/08/14 05:24:09;;;;;;;0.60;0.43;;;;;;;28.23;44.40;101386.19;4931562;28;99727;-80
2023/08/14 05:26:36;;;;;;;0.60;0.40;;;;;;;28.23;44.39;101377.91;4931634;28;97169;-80
2023/08/14 05:29:03;;;;;;;0.68;0.50;;;;;;;28.23;44.31;101372.38;4930991;28;96768;-80
2023/08/14 05:31:29;;;;;;;0.55;0.45;;;;;;;28.23;44.43;101374.25;4932979;28;96806;-80
2023/08/14 05:33:56;;;;;;;0.50;0.50;;;;;;;28.24;44.44;101373.22;4929382;28;99077;-80
2023/08/14 05:36:22;;;;;;;0.90;0.60;;;;;;;28.23;44.39;101377.91;4924406;28;97287;-80
2023/08/14 05:38:49;;;;;;;0.80;0.60;;;;;;;28.23;44.65;101383.41;4927171;28;96849;-80
2023/08/14 05:41:16;;;;;;;1.92;0.63;;;;;;;28.24;44.16;101387.03;4914401;28;96634;-81
2023/08/14 05:43:43;;;;;;;0.60;0.40;;;;;;;28.23;44.33;101379.78;4927111;28;97408;-80
2023/08/14 05:46:10;;;;;;;0.80;0.50;;;;;;;28.22;44.28;101376.16;4921421;28;98213;-80
2023/08/14 05:48:36;;;;;;;0.70;0.50;;;;;;;28.23;44.38;101388.94;4930463;28;96785;-80
2023/08/14 05:51:03;;;;;;;0.98;0.57;;;;;;;28.23;44.28;101390.81;4929125;28;96838;-80
2023/08/14 05:53:30;;;;;;;0.60;0.50;;;;;;;28.22;44.30;101387.22;4925846;28;97159;-80
2023/08/14 05:55:57;;;;;;;0.43;0.40;;;;;;;28.23;44.24;101388.94;4919859;28;97065;-80
2023/08/14 05:58:23;;;;;;;1.00;0.50;;;;;;;28.22;44.42;101401.03;4927802;28;96840;-80
2023/08/14 06:00:50;;;;;;;1.00;0.47;;;;;;;28.24;44.39;101403.59;4927053;28;96895;-80
2023/08/14 06:03:17;;;;;;;0.55;0.50;;;;;;;28.23;44.26;101410.16;4927385;28;97090;-80
2023/08/14 06:06:04;;;;;;;0.77;0.50;;;;;;;28.22;44.53;101409.31;4927423;28;97114;-80
2023/08/14 06:08:31;;;;;;;0.52;0.50;;;;;;;28.22;44.44;101414.84;4926567;28;97210;-80
2023/08/14 06:10:58;;;;;;;0.60;0.50;;;;;;;28.23;44.39;101415.69;4926467;28;97126;-81
2023/08/14 06:13:24;;;;;;;0.50;0.40;;;;;;;28.23;44.61;101410.16;4926110;28;98442;-80
2023/08/14 06:15:51;;;;;;;0.68;0.52;;;;;;;28.23;44.33;101413.81;4926486;28;97068;-80
2023/08/14 06:18:18;;;;;;;0.60;0.55;;;;;;;28.23;44.39;101427.63;4924671;28;96437;-80
2023/08/14 06:20:44;;;;;;;0.90;0.50;;;;;;;28.23;44.37;101426.72;4926844;28;96851;-80
2023/08/14 06:23:11;;;;;;;0.47;0.40;;;;;;;28.23;44.22;101426.72;4924732;28;96919;-80
2023/08/14 06:25:37;;;;;;;0.50;0.40;;;;;;;28.22;44.21;101433.31;4924168;28;98773;-80
2023/08/14 06:28:04;;;;;;;0.68;0.50;;;;;;;28.23;44.40;101433.13;4924656;28;96915;-80
2023/08/14 06:30:30;;;;;;;1.05;0.80;;;;;;;28.22;44.26;101423.13;4923395;28;96891;-80
2023/08/14 06:32:57;;;;;;;1.13;0.60;;;;;;;28.22;44.60;101417.59;4921694;28;96860;-80
2023/08/14 06:35:24;;;;;;;0.50;0.40;;;;;;;28.22;44.31;101425.03;4925988;28;96942;-80
2023/08/14 06:37:50;;;;;;;0.50;0.50;;;;;;;28.22;44.22;101423.13;4926328;28;96632;-80
2023/08/14 06:40:17;;;;;;;1.05;0.50;;;;;;;28.23;44.13;101429.50;4924257;28;96698;-80
2023/08/14 06:42:43;;;;;;;1.13;0.63;;;;;;;28.22;43.95;101414.84;4922758;28;99795;-80
2023/08/14 06:45:10;;;;;;;0.75;0.50;;;;;;;28.22;44.26;101413.97;4918430;28;96921;-81
2023/08/14 06:47:44;;;;;;;0.93;0.55;;;;;;;28.22;44.39;101413.97;4922580;28;96889;-80
2023/08/14 06:50:12;;;;;;;0.88;0.60;;;;;;;28.22;44.43;101414.84;4927061;28;97259;-80
2023/08/14 06:52:39;;;;;;;0.40;0.40;;;;;;;28.21;44.43;101410.38;4925466;28;97563;-80
2023/08/14 06:55:06;;;;;;;0.70;0.52;;;;;;;28.21;44.40;101402.09;4921794;28;98633;-80
2023/08/14 06:57:33;;;;;;;0.40;0.40;;;;;;;28.22;44.36;101403.78;4922219;28;96828;-80
2023/08/14 07:00:05;;;;;;;0.68;0.50;;;;;;;28.23;44.30;101400.00;4921908;28;96824;-80
2023/08/14 07:02:33;;;;;;;0.98;0.60;;;;;;;28.22;44.26;101398.25;4922365;28;96837;-80
2023/08/14 07:05:00;;;;;;;1.05;0.50;;;;;;;28.23;44.31;101386.19;4923036;28;98789;-80
2023/08/14 07:07:26;;;;;;;0.50;0.40;;;;;;;28.23;44.19;101394.47;4918913;28;97667;-80
2023/08/14 07:09:53;;;;;;;0.98;0.52;;;;;;;28.23;44.21;101397.22;4921840;28;96804;-80
2023/08/14 07:12:19;;;;;;;0.70;0.60;;;;;;;28.23;44.39;101396.34;4920301;28;99321;-80
2023/08/14 07:14:46;;;;;;;0.95;0.68;;;;;;;28.24;44.21;101389.78;4922003;28;96685;-80
2023/08/14 07:17:13;;;;;;;0.80;0.70;;;;;;;28.25;44.48;101391.53;4920804;28;96835;-80
2023/08/14 07:19:39;;;;;;;1.08;0.57;;;;;;;28.25;44.55;101405.34;4924131;28;97099;-80
2023/08/14 07:22:06;;;;;;;0.60;0.50;;;;;;;28.24;44.24;101396.19;4923192;28;97558;-80
2023/08/14 07:24:33;;;;;;;0.82;0.50;;;;;;;28.27;44.25;101386.63;4916840;28;98230;-80
2023/08/14 07:26:59;;;;;;;0.70;0.50;;;;;;;28.26;44.03;101394.06;4919785;28;98061;-80
2023/08/14 07:29:26;;;;;;;0.82;0.60;;;;;;;28.27;44.07;101398.53;4920609;28;96930;-79
2023/08/14 07:31:52;;;;;;;0.70;0.50;;;;;;;28.29;44.24;101390.03;4904516;28;96772;-80
2023/08/14 07:34:19;;;;;;;0.70;0.50;;;;;;;28.28;44.17;101383.66;4920653;28;97578;-80
2023/08/14 07:36:45;;;;;;;0.73;0.50;;;;;;;28.28;44.19;101389.19;4898522;28;96465;-80
2023/08/14 07:39:12;;;;;;;0.77;0.70;;;;;;;28.28;44.18;101397.47;4920602;28;97077;-80
2023/08/14 07:41:38;;;;;;;0.52;0.40;;;;;;;28.29;44.16;101395.56;4916741;28;97005;-80
2023/08/14 07:44:05;;;;;;;0.65;0.60;;;;;;;28.29;43.99;101392.81;4934039;28;96711;-80
2023/08/14 07:46:32;;;;;;;1.05;0.57;;;;;;;28.29;44.33;101388.13;4920385;28;96895;-80
2023/08/14 07:48:58;;;;;;;0.88;0.60;;;;;;;28.29;44.10;101390.88;4905510;28;97024;-80
2023/08/14 07:51:25;;;;;;;0.70;0.60;;;;;;;28.29;43.92;101396.41;4923022;28;99089;-80
2023/08/14 07:53:52;;;;;;;0.93;0.70;;;;;;;28.28;44.22;101397.47;4920538;28;97167;-80
2023/08/14 07:56:19;;;;;;;0.73;0.57;;;;;;;28.29;43.83;101407.47;4920080;28;96646;-80
2023/08/14 07:58:45;;;;;;;0.50;0.45;;;;;;;28.30;44.16;101416.59;4921035;28;96703;-80
2023/08/14 08:01:12;;;;;;;0.93;0.60;;;;;;;28.29;44.16;101421.28;4920712;28;96789;-79
2023/08/14 08:03:39;;;;;;;0.82;0.50;;;;;;;28.29;44.28;101421.28;4920640;28;96833;-80
2023/08/14 08:06:06;;;;;;;0.80;0.70;;;;;;;28.30;44.01;101411.06;4921757;28;98302;-80
2023/08/14 08:08:32;;;;;;;0.70;0.50;;;;;;;28.29;44.16;101418.50;4920411;28;96908;-80
2023/08/14 08:10:59;;;;;;;0.70;0.60;;;;;;;28.30;44.11;101424.88;4919389;28;96868;-80
2023/08/14 08:13:25;;;;;;;0.77;0.68;;;;;;;28.29;44.16;101410.22;4920361;28;97081;-80
2023/08/14 08:15:52;;;;;;;0.60;0.50;;;;;;;28.31;44.05;101418.31;4917971;28;96642;-80
2023/08/14 08:18:18;;;;;;;0.90;0.70;;;;;;;28.30;44.04;101422.97;4914139;28;97619;-81
2023/08/14 08:20:45;;;;;;;0.60;0.60;;;;;;;28.30;44.28;101419.38;4912582;28;96883;-80
2023/08/14 08:23:12;;;;;;;0.80;0.50;;;;;;;28.31;43.88;101426.59;4895479;28;97487;-80
2023/08/14 08:25:38;;;;;;;0.60;0.57;;;;;;;28.30;44.07;101425.75;4912576;28;96709;-80
2023/08/14 08:28:05;;;;;;;0.90;0.70;;;;;;;28.31;43.97;101427.44;4910442;28;97004;-80
2023/08/14 08:30:31;;;;;;;0.80;0.60;;;;;;;28.31;44.03;101419.16;4912059;28;97741;-80
2023/08/14 08:32:58;;;;;;;0.98;0.60;;;;;;;28.31;43.88;101408.09;4911932;28;96776;-80
2023/08/14 08:35:27;;;;;;;0.63;0.60;;;;;;;28.30;44.16;101395.34;4912518;28;96435;-80
2023/08/14 08:37:54;;;;;;;0.85;0.70;;;;;;;28.32;44.11;101403.44;4912398;28;96851;-80
2023/08/14 08:40:22;;;;;;;0.60;0.60;;;;;;;28.32;43.86;101403.44;4911298;28;96684;-80
2023/08/14 08:42:48;;;;;;;1.52;0.75;;;;;;;28.32;44.02;101398.75;4892933;28;97828;-80
2023/08/14 08:45:17;;;;;;;0.65;0.50;;;;;;;28.33;44.03;101381.13;4904125;28;96485;-80
2023/08/14 08:47:49;;;;;;;0.55;0.55;;;;;;;28.33;44.10;101385.78;4912416;28;96729;-80
2023/08/14 08:50:16;;;;;;;0.70;0.60;;;;;;;28.33;44.06;101389.41;4904692;28;97150;-80
2023/08/14 08:52:42;;;;;;;0.75;0.70;;;;;;;28.33;43.90;101394.94;4911070;28;99083;-80
2023/08/14 08:55:09;;;;;;;0.80;0.52;;;;;;;28.34;44.04;101388.34;4904590;28;96939;-80
2023/08/14 08:57:38;;;;;;;1.05;0.70;;;;;;;28.33;44.25;101372.81;4916688;28;97021;-80
2023/08/14 09:00:06;;;;;;;1.05;0.95;;;;;;;28.33;44.14;101375.59;4914312;28;97080;-80
2023/08/14 09:02:32;;;;;;;0.70;0.43;;;;;;;28.34;43.99;101371.75;4915872;28;96774;-80
2023/08/14 09:05:00;;;;;;;0.90;0.60;;;;;;;28.34;44.00;101371.75;4914481;28;96734;-80
2023/08/14 09:07:26;;;;;;;1.77;0.68;;;;;;;28.35;44.09;101375.38;4915824;28;97960;-80
2023/08/14 09:09:53;;;;;;;1.00;0.60;;;;;;;28.34;43.87;101377.28;4915526;28;97091;-80
2023/08/14 09:12:20;;;;;;;0.80;0.50;;;;;;;28.35;44.49;101375.38;4916240;28;96754;-80
2023/08/14 09:15:02;;;;;;;0.75;0.50;;;;;;;28.35;44.33;101372.63;4914631;28;96959;-80
2023/08/14 09:17:30;;;;;;;0.70;0.60;;;;;;;28.34;43.99;101363.47;4908580;28;96837;-79
2023/08/14 09:19:57;;;;;;;0.90;0.70;;;;;;;28.35;44.17;101362.41;4915942;28;98115;-80
2023/08/14 09:22:27;;;;;;;1.13;0.70;;;;;;;28.36;44.15;101350.31;4914889;28;99533;-80
2023/08/14 09:24:55;;;;;;;1.10;0.75;;;;;;;28.36;44.16;101352.22;4916486;28;96769;-80
2023/08/14 09:27:22;;;;;;;0.88;0.70;;;;;;;28.36;44.01;101355.81;4915624;28;96936;-80
2023/08/14 09:29:53;;;;;;;0.93;0.70;;;;;;;28.36;43.86;101355.81;4916344;28;97325;-80
2023/08/14 09:32:24;;;;;;;0.93;0.75;;;;;;;28.37;44.06;101356.69;4918265;28;97369;-80
2023/08/14 09:35:00;;;;;;;1.42;0.80;;;;;;;28.37;43.86;101356.69;4914779;28;96776;-80
2023/08/14 09:37:27;;;;;;;0.65;0.65;;;;;;;28.36;44.17;101355.81;4915781;28;96714;-80
2023/08/14 09:40:13;;;;;;;1.00;0.60;;;;;;;28.37;43.88;101353.91;4915903;28;96789;-80
2023/08/14 09:42:41;;;;;;;0.60;0.60;;;;;;;28.36;44.04;101366.88;4916941;28;96588;-80
2023/08/14 09:45:08;;;;;;;1.02;0.60;;;;;;;28.36;44.13;101361.34;4911316;28;98634;-80
2023/08/14 09:47:35;;;;;;;0.73;0.73;;;;;;;28.36;44.15;101372.41;4917296;28;97236;-80
2023/08/14 09:50:02;;;;;;;1.08;0.73;;;;;;;28.37;43.97;101371.34;4914513;28;97649;-80
2023/08/14 09:52:29;;;;;;;0.70;0.55;;;;;;;28.37;44.15;101376.88;4911999;28;97562;-80
2023/08/14 09:54:57;;;;;;;0.80;0.60;;;;;;;28.37;44.19;101368.56;4915265;28;96766;-80
2023/08/14 09:57:36;;;;;;;0.73;0.55;;;;;;;28.39;43.73;101376.66;4898738;28;96758;-80
2023/08/14 10:00:04;;;;;;;0.70;0.60;;;;;;;28.39;44.12;101382.16;4914057;28;98203;-80
2023/08/14 10:02:33;;;;;;;0.80;0.60;;;;;;;28.39;44.02;101382.16;4910053;28;96840;-80
2023/08/14 10:05:01;;;;;;;0.93;0.50;;;;;;;28.39;43.90;101374.72;4915111;28;97457;-80
2023/08/14 10:07:28;;;;;;;1.05;0.60;;;;;;;28.39;44.12;101380.25;4914654;28;96948;-80
2023/08/14 10:09:56;;;;;;;0.52;0.40;;;;;;;28.39;43.90;101363.69;4916448;28;97455;-80
2023/08/14 10:12:28;;;;;;;0.75;0.60;;;;;;;28.39;43.82;101371.97;4916333;28;97567;-80
2023/08/14 10:15:10;;;;;;;0.70;0.52;;;;;;;28.40;44.08;101359.00;4916540;28;96910;-80
2023/08/14 10:17:51;;;;;;;0.77;0.60;;;;;;;28.39;44.01;101355.41;4900988;28;96795;-80
2023/08/14 10:20:21;;;;;;;1.08;0.70;;;;;;;28.38;43.84;101353.69;4916345;28;99595;-80
2023/08/14 10:22:49;;;;;;;1.17;0.60;;;;;;;28.39;44.00;101344.34;4919587;28;97191;-80
2023/08/14 10:25:17;;;;;;;1.00;0.65;;;;;;;28.39;43.87;101338.81;4917448;28;96792;-80
2023/08/14 10:27:44;;;;;;;1.00;0.80;;;;;;;28.40;43.79;101337.75;4914714;28;96968;-80
2023/08/14 10:30:11;;;;;;;0.98;0.75;;;;;;;28.40;43.87;101328.63;4904766;28;97311;-80
2023/08/14 10:32:39;;;;;;;0.70;0.47;;;;;;;28.41;43.92;101322.88;4912517;28;96744;-80
2023/08/14 10:35:08;;;;;;;1.17;0.70;;;;;;;28.41;43.90;101309.06;4901581;28;97060;-80
2023/08/14 10:37:41;;;;;;;0.85;0.60;;;;;;;28.42;43.94;101305.22;4905560;28;96957;-80
2023/08/14 10:40:23;;;;;;;0.93;0.80;;;;;;;28.41;43.82;101299.94;4911522;28;96798;-80
2023/08/14 10:42:55;;;;;;;0.95;0.85;;;;;;;28.40;43.99;101301.84;4896170;28;99148;-80
2023/08/14 10:45:24;;;;;;;0.90;0.65;;;;;;;28.42;43.87;101302.47;4908049;28;97238;-80
2023/08/14 10:47:51;;;;;;;0.73;0.52;;;;;;;28.42;43.95;101299.72;4915230;28;96696;-80
2023/08/14 10:50:20;;;;;;;1.15;0.60;;;;;;;28.43;44.07;101300.56;4908584;28;99200;-80
2023/08/14 10:52:49;;;;;;;1.08;0.80;;;;;;;28.42;43.83;101296.94;4914052;28;96870;-80
2023/08/14 10:55:24;;;;;;;1.15;0.70;;;;;;;28.43;43.68;101300.56;4892350;28;96899;-80
2023/08/14 10:57:53;;;;;;;;;;;;;;;28.40;43.87;101292.69;4918872;28;97057;-80
2023/08/14 11:00:22;;;;;;;1.13;0.82;;;;;;;28.41;44.06;101286.13;4910184;28;96940;-80
2023/08/14 11:02:51;;;;;;;0.50;0.50;;;;;;;28.40;43.82;101290.78;4911355;28;97666;-80
2023/08/14 11:05:17;;;;;;;0.50;0.50;;;;;;;28.43;44.03;101295.03;4910483;28;97129;-80
2023/08/14 11:07:57;;;;;;;0.70;0.50;;;;;;;28.43;43.87;101295.88;4918579;28;96601;-80
2023/08/14 11:10:25;;;;;;;0.98;0.57;;;;;;;28.43;43.92;101289.50;4916551;28;97002;-80
2023/08/14 11:12:55;;;;;;;0.80;0.60;;;;;;;28.44;44.06;101291.22;4918229;28;96781;-80
2023/08/14 11:15:22;;;;;;;0.80;0.50;;;;;;;28.43;44.01;101301.41;4915101;28;96803;-80
2023/08/14 11:17:49;;;;;;;0.70;0.68;;;;;;;28.44;43.98;101296.72;4915864;28;96906;-80
2023/08/14 11:20:16;;;;;;;0.90;0.60;;;;;;;28.45;43.81;101292.91;4914153;28;96718;-80
2023/08/14 11:22:44;;;;;;;1.10;0.63;;;;;;;28.46;43.68;101297.38;4900705;28;98289;-80
2023/08/14 11:25:15;;;;;;;1.40;0.90;;;;;;;28.47;44.03;101293.53;4916719;28;96894;-80
2023/08/14 11:27:53;;;;;;;0.75;0.65;;;;;;;28.46;43.99;101295.44;4917577;28;96781;-80